Time;durP1;ratioP1;P1;durP2;ratioP2;P2;SDS_P1;SDS_P2;PMS_P1;PMS_P2;Temp;Humidity;BMP_temperature;BMP_pressure;BME280_temperature;BME280_humidity;BME280_pressure;Samples;Min_cycle;Max_cycle;Signal;HPM_P1;HPM_P2
2021/06/19 00:03:00;;;;;;;3.28;1.90;;;15.10;71.60;;;;;;6118679;23;20005;-72
2021/06/19 00:06:06;;;;;;;4.10;1.13;;;15.10;71.50;;;;;;6119300;23;20049;-72
2021/06/19 00:09:12;;;;;;;2.05;1.27;;;15.10;71.50;;;;;;6119136;23;20024;-72
2021/06/19 00:12:19;;;;;;;2.40;1.00;;;15.10;71.50;;;;;;6120103;23;20363;-72
2021/06/19 00:15:25;;;;;;;4.15;2.40;;;15.10;71.50;;;;;;6121977;23;20006;-72
2021/06/19 00:18:31;;;;;;;4.63;1.65;;;15.10;71.40;;;;;;6122153;23;20026;-72
2021/06/19 00:21:37;;;;;;;3.15;1.50;;;15.00;71.50;;;;;;6123570;23;20002;-72
2021/06/19 00:24:43;;;;;;;2.70;1.52;;;15.00;71.50;;;;;;6123864;23;20032;-72
2021/06/19 00:27:49;;;;;;;4.18;1.67;;;15.00;71.50;;;;;;6122461;23;20002;-72
2021/06/19 00:30:55;;;;;;;1.90;1.20;;;15.00;71.50;;;;;;6122422;23;20016;-72
2021/06/19 00:34:01;;;;;;;3.72;2.05;;;15.00;71.60;;;;;;6123522;23;20001;-72
2021/06/19 00:37:07;;;;;;;5.15;1.40;;;15.00;71.60;;;;;;6123204;23;20170;-72
2021/06/19 00:40:14;;;;;;;6.18;2.65;;;15.00;71.70;;;;;;6122234;23;20002;-72
2021/06/19 00:43:20;;;;;;;5.25;1.60;;;15.00;71.70;;;;;;6122828;23;20017;-73
2021/06/19 00:46:26;;;;;;;6.00;2.13;;;14.90;71.60;;;;;;6123606;23;20002;-74
2021/06/19 00:49:32;;;;;;;5.10;1.88;;;14.90;71.70;;;;;;6122263;23;20002;-74
2021/06/19 00:52:38;;;;;;;2.67;1.83;;;14.90;71.70;;;;;;6122198;23;20119;-73
2021/06/19 00:55:44;;;;;;;5.57;1.58;;;14.90;71.70;;;;;;6123293;23;20438;-74
2021/06/19 00:58:50;;;;;;;5.95;2.05;;;14.90;71.70;;;;;;6123012;23;19998;-73
2021/06/19 01:01:56;;;;;;;6.97;1.65;;;14.90;71.70;;;;;;6122028;23;20006;-72
2021/06/19 01:05:02;;;;;;;4.75;1.38;;;14.90;71.70;;;;;;6122456;23;20021;-72
2021/06/19 01:08:08;;;;;;;3.95;1.38;;;14.80;71.70;;;;;;6122922;23;20009;-72
2021/06/19 01:11:14;;;;;;;4.53;1.50;;;14.80;71.70;;;;;;6122174;23;20045;-73
2021/06/19 01:14:20;;;;;;;3.03;1.73;;;14.80;71.70;;;;;;6121704;23;20485;-73
2021/06/19 01:17:26;;;;;;;14.05;2.65;;;14.80;71.60;;;;;;6122928;23;20615;-73
2021/06/19 01:20:45;;;;;;;4.25;1.77;;;14.80;71.40;;;;;;6122740;23;20073;-72
2021/06/19 01:23:51;;;;;;;6.45;1.85;;;14.80;71.40;;;;;;6121466;23;20335;-73
2021/06/19 01:26:57;;;;;;;6.15;1.75;;;14.80;71.40;;;;;;6121614;23;20561;-72
2021/06/19 01:30:03;;;;;;;7.20;1.85;;;14.70;71.30;;;;;;6122951;23;19998;-72
2021/06/19 01:33:09;;;;;;;8.25;1.95;;;14.70;71.30;;;;;;6123071;23;20006;-72
2021/06/19 01:36:15;;;;;;;4.07;2.05;;;14.70;71.30;;;;;;6121639;23;20384;-72
2021/06/19 01:39:21;;;;;;;4.05;2.30;;;14.70;71.40;;;;;;6122879;23;20005;-72
2021/06/19 01:42:27;;;;;;;8.95;2.58;;;14.70;71.40;;;;;;6122854;23;20010;-72
2021/06/19 01:45:33;;;;;;;2.63;1.75;;;14.70;71.60;;;;;;6121116;23;20020;-73
2021/06/19 01:48:39;;;;;;;6.47;3.88;;;14.60;71.50;;;;;;6122185;23;20002;-72
2021/06/19 01:51:52;;;;;;;2.95;2.25;;;14.60;71.50;;;;;;6122702;23;20061;-72
2021/06/19 01:54:58;;;;;;;4.50;2.35;;;14.60;71.50;;;;;;6122322;23;20017;-72
2021/06/19 01:58:05;;;;;;;4.47;2.03;;;14.60;71.60;;;;;;6121322;23;20002;-72
2021/06/19 02:01:12;;;;;;;4.15;2.15;;;14.60;71.70;;;;;;6122570;23;20775;-72
2021/06/19 02:04:18;;;;;;;6.47;2.65;;;14.60;71.70;;;;;;6122271;23;20097;-72
2021/06/19 02:07:24;;;;;;;11.15;2.10;;;14.60;71.70;;;;;;6121224;23;20030;-72
2021/06/19 02:10:30;;;;;;;5.53;1.83;;;14.60;71.70;;;;;;6121514;23;20468;-72
2021/06/19 02:12:57;;;;;;;5.28;1.90;;;14.60;71.70;;;;;;6122467;23;20010;-72
2021/06/19 02:15:24;;;;;;;5.78;1.77;;;14.50;71.60;;;;;;6121376;23;20042;-72
2021/06/19 02:17:51;;;;;;;4.72;2.75;;;14.50;71.60;;;;;;6122247;23;20085;-72
2021/06/19 02:20:19;;;;;;;4.65;1.75;;;14.50;71.50;;;;;;6122000;23;20373;-72
2021/06/19 02:22:46;;;;;;;4.13;2.53;;;14.50;71.50;;;;;;6121465;23;20013;-72
2021/06/19 02:25:14;;;;;;;9.00;5.60;;;14.50;71.40;;;;;;6122365;23;20009;-72
2021/06/19 02:27:55;;;;;;;33.55;21.63;;;14.50;71.40;;;;;;6120888;23;20006;-72
2021/06/19 02:30:25;;;;;;;33.13;23.80;;;14.50;71.50;;;;;;6122645;23;20010;-73
2021/06/19 02:32:52;;;;;;;21.42;15.57;;;14.50;71.50;;;;;;6121459;23;20013;-73
2021/06/19 02:35:20;;;;;;;14.90;10.48;;;14.40;71.50;;;;;;6121880;23;20056;-73
2021/06/19 02:37:47;;;;;;;14.13;7.82;;;14.40;71.50;;;;;;6121676;23;20025;-72
2021/06/19 02:40:14;;;;;;;7.55;4.80;;;14.40;71.50;;;;;;6120369;23;20430;-72
2021/06/19 02:42:41;;;;;;;8.93;5.03;;;14.50;71.50;;;;;;6122792;23;20100;-72
2021/06/19 02:45:11;;;;;;;6.80;3.38;;;14.40;71.50;;;;;;6120771;23;20006;-73
2021/06/19 02:47:43;;;;;;;4.97;2.28;;;14.40;71.50;;;;;;6122053;23;20009;-72
2021/06/19 02:50:11;;;;;;;3.55;1.95;;;14.40;71.50;;;;;;6119654;23;20378;-72
2021/06/19 02:52:41;;;;;;;7.25;2.08;;;14.40;71.50;;;;;;6121575;23;20029;-72
2021/06/19 02:55:15;;;;;;;3.35;1.98;;;14.40;71.50;;;;;;6122273;23;19998;-72
2021/06/19 02:57:42;;;;;;;4.38;1.98;;;14.40;71.50;;;;;;6115753;23;20013;-72
2021/06/19 03:00:11;;;;;;;3.72;2.40;;;14.40;71.60;;;;;;6121858;23;20006;-72
2021/06/19 03:02:38;;;;;;;6.20;2.35;;;14.40;71.60;;;;;;6120563;23;20021;-70
2021/06/19 03:05:08;;;;;;;6.93;1.73;;;14.40;71.60;;;;;;6122049;23;20446;-77
2021/06/19 03:07:34;;;;;;;4.63;1.45;;;14.30;71.60;;;;;;6121824;23;20434;-72
2021/06/19 03:10:01;;;;;;;8.70;3.13;;;14.30;71.60;;;;;;6121489;23;20468;-72
2021/06/19 03:12:28;;;;;;;19.83;13.60;;;14.30;71.60;;;;;;6122037;23;20080;-72
2021/06/19 03:14:55;;;;;;;24.10;18.23;;;14.30;71.60;;;;;;6120682;23;20714;-72
2021/06/19 03:17:22;;;;;;;17.45;14.05;;;14.30;71.60;;;;;;6122540;23;20002;-72
2021/06/19 03:23:51;;;;;;;7.47;5.82;;;14.30;71.60;;;;;;6119963;23;20024;-72
2021/06/19 03:26:57;;;;;;;6.47;3.70;;;14.30;71.60;;;;;;6121794;23;20486;-71
2021/06/19 03:30:03;;;;;;;6.68;2.95;;;14.30;71.40;;;;;;6121507;23;20013;-71
2021/06/19 03:33:09;;;;;;;4.25;1.90;;;14.30;71.40;;;;;;6120550;23;20002;-72
2021/06/19 03:36:15;;;;;;;2.63;1.50;;;14.30;71.40;;;;;;6119994;23;20006;-71
2021/06/19 03:39:21;;;;;;;4.30;1.90;;;14.30;71.40;;;;;;6121777;23;20485;-72
2021/06/19 03:42:27;;;;;;;6.70;2.67;;;14.20;71.30;;;;;;6120564;23;20456;-72
2021/06/19 03:45:36;;;;;;;5.50;1.77;;;14.30;71.10;;;;;;6120592;23;20446;-71
2021/06/19 03:48:42;;;;;;;4.18;1.50;;;14.20;71.00;;;;;;6122739;23;20005;-71
2021/06/19 03:51:48;;;;;;;4.60;1.60;;;14.20;71.00;;;;;;6123665;23;20513;-71
2021/06/19 03:54:54;;;;;;;3.03;1.50;;;14.20;70.90;;;;;;6121553;23;20386;-70
2021/06/19 03:58:04;;;;;;;1.95;1.65;;;14.20;70.70;;;;;;6123051;23;20009;-72
2021/06/19 04:01:11;;;;;;;11.10;4.57;;;14.20;70.70;;;;;;6120697;23;20028;-72
2021/06/19 04:04:17;;;;;;;5.85;4.97;;;14.20;70.60;;;;;;6121264;23;20014;-70
2021/06/19 04:07:23;;;;;;;6.97;3.92;;;14.20;70.60;;;;;;6121381;23;20009;-70
2021/06/19 04:10:29;;;;;;;5.88;3.33;;;14.20;70.50;;;;;;6122735;23;20061;-70
2021/06/19 04:13:35;;;;;;;5.13;2.33;;;14.10;70.60;;;;;;6122741;23;20006;-70
2021/06/19 04:16:42;;;;;;;6.53;2.10;;;14.10;70.40;;;;;;6121265;23;20073;-70
2021/06/19 04:19:48;;;;;;;6.35;1.73;;;14.10;70.40;;;;;;6122332;23;20575;-71
2021/06/19 04:22:54;;;;;;;3.10;1.77;;;14.10;70.40;;;;;;6120789;23;20421;-69
2021/06/19 04:26:00;;;;;;;6.68;2.28;;;14.10;70.40;;;;;;6121637;23;20010;-70
2021/06/19 04:29:06;;;;;;;5.53;2.05;;;14.00;70.40;;;;;;6121112;23;20399;-70
2021/06/19 04:32:12;;;;;;;4.07;1.63;;;14.10;70.40;;;;;;6122551;23;20005;-70
2021/06/19 04:35:22;;;;;;;2.30;1.45;;;14.00;70.40;;;;;;6122200;23;20014;-69
2021/06/19 04:38:28;;;;;;;2.17;1.40;;;14.00;70.40;;;;;;6121574;23;20010;-71
2021/06/19 04:41:49;;;;;;;4.45;1.50;;;14.00;70.40;;;;;;6122060;23;20123;-75
2021/06/19 04:45:04;;;;;;;3.42;1.38;;;14.00;70.30;;;;;;6122592;23;20682;-72
2021/06/19 04:48:10;;;;;;;2.53;1.55;;;14.00;70.30;;;;;;6122471;23;20002;-73
2021/06/19 04:51:16;;;;;;;5.80;1.70;;;13.90;70.10;;;;;;6120789;23;20006;-71
2021/06/19 04:54:22;;;;;;;1.60;1.50;;;13.90;70.00;;;;;;6121903;23;20006;-72
2021/06/19 04:57:28;;;;;;;4.15;1.60;;;14.00;70.00;;;;;;6122883;23;20005;-70
2021/06/19 05:00:35;;;;;;;61.13;44.70;;;13.90;69.90;;;;;;6120754;23;20014;-70
2021/06/19 05:03:41;;;;;;;58.60;44.95;;;13.90;69.50;;;;;;6119878;23;20018;-70
2021/06/19 05:06:47;;;;;;;34.95;26.25;;;13.80;69.40;;;;;;6121271;23;20084;-70
2021/06/19 05:09:53;;;;;;;21.38;15.25;;;13.80;69.50;;;;;;6119615;23;20052;-71
2021/06/19 05:12:59;;;;;;;13.02;9.35;;;13.80;69.60;;;;;;6119510;23;20006;-71
2021/06/19 05:16:05;;;;;;;6.45;5.22;;;13.80;69.60;;;;;;6120777;23;20678;-72
2021/06/19 05:19:12;;;;;;;6.85;4.20;;;13.80;69.60;;;;;;6119585;23;20315;-73
2021/06/19 05:21:40;;;;;;;6.28;4.85;;;13.80;69.70;;;;;;6118624;23;20014;-71
2021/06/19 05:24:08;;;;;;;6.32;4.90;;;13.80;69.60;;;;;;6121119;23;20014;-72
2021/06/19 05:26:35;;;;;;;8.20;4.95;;;13.80;69.70;;;;;;6121404;23;20430;-72
2021/06/19 05:29:02;;;;;;;9.52;5.35;;;13.80;69.80;;;;;;6120273;23;20107;-71
2021/06/19 05:31:28;;;;;;;9.77;5.40;;;13.80;69.80;;;;;;6121145;23;20209;-72
2021/06/19 05:33:55;;;;;;;4.65;3.28;;;13.80;69.80;;;;;;6119852;23;20037;-73
2021/06/19 05:36:21;;;;;;;7.45;4.00;;;13.80;69.70;;;;;;6121459;23;20001;-72
2021/06/19 05:38:48;;;;;;;4.15;3.28;;;13.70;69.70;;;;;;6120199;23;20017;-71
2021/06/19 05:41:14;;;;;;;7.25;3.90;;;13.80;69.80;;;;;;6120550;23;20013;-71
2021/06/19 05:43:41;;;;;;;3.65;2.78;;;13.70;69.60;;;;;;6120935;23;20010;-73
2021/06/19 05:46:07;;;;;;;5.22;3.20;;;13.70;69.70;;;;;;6120748;23;19998;-74
2021/06/19 05:48:34;;;;;;;5.85;2.90;;;13.70;69.60;;;;;;6120805;23;20013;-73
2021/06/19 05:51:01;;;;;;;5.53;2.88;;;13.70;69.60;;;;;;6120185;23;20038;-70
2021/06/19 05:53:28;;;;;;;7.18;3.80;;;13.70;69.60;;;;;;6121631;23;20009;-74
2021/06/19 05:55:55;;;;;;;9.52;7.00;;;13.70;69.60;;;;;;6119059;23;20013;-76
2021/06/19 05:58:21;;;;;;;17.65;14.13;;;13.70;69.70;;;;;;6121531;23;20013;-75
2021/06/19 06:00:48;;;;;;;15.00;11.73;;;13.70;69.70;;;;;;6120864;23;20461;-76
2021/06/19 06:03:15;;;;;;;15.50;11.20;;;13.70;69.80;;;;;;6120624;23;20014;-76
2021/06/19 06:05:42;;;;;;;14.25;7.60;;;13.60;69.80;;;;;;6119667;23;20006;-76
2021/06/19 06:08:09;;;;;;;12.73;6.57;;;13.60;69.90;;;;;;6120588;23;20010;-78
2021/06/19 06:10:37;;;;;;;11.52;6.15;;;13.60;69.90;;;;;;6122514;23;20006;-77
2021/06/19 06:13:05;;;;;;;8.45;5.45;;;13.60;69.90;;;;;;6119106;23;20005;-77
2021/06/19 06:15:32;;;;;;;8.82;4.70;;;13.60;70.00;;;;;;6120586;23;20009;-76
2021/06/19 06:17:58;;;;;;;7.82;4.95;;;13.60;70.80;;;;;;6120876;23;20009;-76
2021/06/19 06:20:25;;;;;;;7.45;5.15;;;13.60;70.30;;;;;;6122041;23;20017;-76
2021/06/19 06:22:52;;;;;;;7.00;4.97;;;13.60;70.30;;;;;;6122093;23;20006;-76
2021/06/19 06:25:19;;;;;;;9.23;4.90;;;13.60;70.40;;;;;;6119170;23;20045;-79
2021/06/19 06:27:45;;;;;;;8.65;4.95;;;13.60;70.50;;;;;;6122189;23;20002;-77
2021/06/19 06:30:13;;;;;;;11.05;6.85;;;13.60;70.50;;;;;;6120631;23;20014;-77
2021/06/19 06:32:39;;;;;;;16.08;6.63;;;13.60;70.60;;;;;;6121803;23;20390;-77
2021/06/19 06:35:09;;;;;;;9.73;5.72;;;13.60;70.60;;;;;;6120636;23;20038;-77
2021/06/19 06:37:39;;;;;;;9.20;5.68;;;13.60;70.70;;;;;;6119995;23;20058;-78
2021/06/19 06:40:08;;;;;;;8.50;6.47;;;13.60;70.90;;;;;;6116794;23;20017;-76
2021/06/19 06:42:35;;;;;;;14.38;6.70;;;13.60;71.00;;;;;;6120673;23;20026;-76
2021/06/19 06:45:01;;;;;;;10.88;5.72;;;13.60;71.20;;;;;;6121643;23;20009;-76
2021/06/19 06:47:28;;;;;;;10.65;7.63;;;13.60;71.40;;;;;;6120862;23;20010;-76
2021/06/19 06:49:55;;;;;;;10.70;7.47;;;13.60;71.50;;;;;;6119781;23;20097;-79
2021/06/19 06:53:01;;;;;;;11.20;6.60;;;13.60;71.70;;;;;;6120539;23;20330;-77
2021/06/19 06:55:28;;;;;;;8.70;6.90;;;13.60;71.90;;;;;;6121676;23;20427;-76
2021/06/19 06:57:54;;;;;;;10.07;6.60;;;13.60;72.20;;;;;;6122479;23;20374;-76
2021/06/19 07:00:21;;;;;;;15.10;6.80;;;13.60;72.30;;;;;;6120590;23;20185;-77
2021/06/19 07:02:48;;;;;;;16.20;9.40;;;13.60;72.40;;;;;;6121774;23;20431;-72
2021/06/19 07:05:15;;;;;;;14.38;8.93;;;13.60;72.60;;;;;;6121324;23;19998;-76
2021/06/19 07:07:41;;;;;;;16.35;9.48;;;13.60;72.80;;;;;;6122243;23;20485;-81
2021/06/19 07:10:10;;;;;;;13.38;8.95;;;13.70;73.10;;;;;;6122193;23;20025;-75
2021/06/19 07:12:41;;;;;;;10.10;7.95;;;13.70;73.30;;;;;;6121198;23;19994;-72
2021/06/19 07:15:09;;;;;;;18.08;8.43;;;13.70;73.60;;;;;;6122226;23;20002;-71
2021/06/19 07:17:35;;;;;;;17.58;8.70;;;13.70;73.80;;;;;;6121340;23;20002;-73
2021/06/19 07:20:03;;;;;;;16.73;9.90;;;13.70;74.00;;;;;;6121902;23;20029;-70
2021/06/19 07:22:29;;;;;;;17.38;12.32;;;13.70;74.30;;;;;;6120545;23;20009;-71
2021/06/19 07:24:56;;;;;;;22.33;19.02;;;13.70;74.40;;;;;;6121688;23;20105;-73
2021/06/19 07:27:22;;;;;;;31.48;26.30;;;13.80;74.60;;;;;;6119195;23;20010;-73
2021/06/19 07:29:49;;;;;;;39.35;32.00;;;13.80;74.90;;;;;;6120312;23;20013;-71
2021/06/19 07:32:15;;;;;;;38.20;33.92;;;13.80;75.00;;;;;;6121492;23;20049;-72
2021/06/19 07:34:42;;;;;;;42.78;35.20;;;13.80;75.20;;;;;;6120381;23;20028;-76
2021/06/19 07:37:09;;;;;;;44.53;36.38;;;13.80;75.30;;;;;;6121541;23;20472;-72
2021/06/19 07:39:35;;;;;;;43.45;37.08;;;13.90;75.50;;;;;;6120646;23;20081;-73
2021/06/19 07:42:02;;;;;;;40.92;34.40;;;13.90;75.60;;;;;;6121682;23;20447;-69
2021/06/19 07:44:29;;;;;;;43.22;34.17;;;13.90;76.40;;;;;;6120985;23;20100;-70
2021/06/19 07:46:55;;;;;;;42.80;30.60;;;14.00;76.00;;;;;;6121511;23;20422;-72
2021/06/19 07:49:23;;;;;;;38.55;31.77;;;14.00;76.10;;;;;;6121778;23;20002;-72
2021/06/19 07:51:49;;;;;;;35.78;29.88;;;14.00;76.20;;;;;;6120968;23;20021;-71
2021/06/19 07:54:15;;;;;;;36.35;29.17;;;14.00;76.30;;;;;;6122488;23;20081;-72
2021/06/19 07:56:42;;;;;;;35.28;28.05;;;14.10;76.60;;;;;;6120394;23;20006;-74
2021/06/19 07:59:08;;;;;;;35.30;26.88;;;14.10;76.70;;;;;;6120841;23;20111;-71
2021/06/19 08:01:35;;;;;;;29.17;25.23;;;14.10;77.00;;;;;;6121328;23;20006;-71
2021/06/19 08:04:01;;;;;;;33.03;23.98;;;14.10;77.20;;;;;;6120335;23;20018;-73
2021/06/19 08:06:28;;;;;;;25.20;22.15;;;14.20;77.40;;;;;;6122246;23;20430;-72
2021/06/19 08:08:54;;;;;;;29.67;22.98;;;14.20;77.60;;;;;;6119843;23;20465;-72
2021/06/19 08:11:26;;;;;;;29.42;20.98;;;14.30;77.90;;;;;;6121041;23;20006;-76
2021/06/19 08:13:53;;;;;;;21.63;18.50;;;14.30;78.10;;;;;;6117493;23;20036;-72
2021/06/19 08:16:21;;;;;;;22.48;18.67;;;14.30;78.30;;;;;;6118394;23;20006;-72
2021/06/19 08:18:48;;;;;;;23.55;17.75;;;14.40;78.50;;;;;;6119106;23;20005;-72
2021/06/19 08:21:15;;;;;;;19.67;16.30;;;14.40;78.60;;;;;;6118074;23;20445;-72
2021/06/19 08:23:42;;;;;;;18.02;14.60;;;14.50;78.80;;;;;;6119475;23;20081;-74
2021/06/19 08:26:09;;;;;;;24.27;14.75;;;14.50;78.90;;;;;;6117920;23;20195;-74
2021/06/19 08:28:35;;;;;;;15.27;12.90;;;14.50;79.00;;;;;;6120751;23;20541;-73
2021/06/19 08:31:03;;;;;;;16.63;13.02;;;14.60;79.20;;;;;;6116773;23;20010;-72
2021/06/19 08:33:33;;;;;;;13.10;11.20;;;14.70;79.40;;;;;;6120412;23;20406;-72
2021/06/19 08:36:00;;;;;;;14.02;11.13;;;14.70;79.70;;;;;;6120254;23;20457;-71
2021/06/19 08:38:26;;;;;;;18.98;10.70;;;14.70;79.90;;;;;;6122160;23;20088;-72
2021/06/19 08:40:54;;;;;;;15.27;9.82;;;14.80;80.30;;;;;;6121392;23;20010;-77
2021/06/19 08:43:21;;;;;;;12.68;9.63;;;14.90;80.50;;;;;;6120543;23;20112;-76
2021/06/19 08:45:51;;;;;;;20.10;9.43;;;15.00;80.80;;;;;;6121959;23;20038;-73
2021/06/19 08:48:20;;;;;;;20.27;10.55;;;15.00;80.90;;;;;;6118658;23;20093;-74
2021/06/19 08:50:48;;;;;;;14.90;8.70;;;15.10;81.30;;;;;;6120335;23;20494;-76
2021/06/19 08:53:55;;;;;;;17.25;9.50;;;15.20;81.70;;;;;;6120391;23;20069;-73
2021/06/19 08:57:01;;;;;;;18.55;8.40;;;15.20;81.70;;;;;;6121370;23;20431;-73
2021/06/19 08:59:27;;;;;;;15.50;9.43;;;15.40;81.80;;;;;;6122025;23;20006;-72
2021/06/19 09:01:54;;;;;;;15.30;8.13;;;15.40;81.90;;;;;;6119676;23;20005;-71
2021/06/19 09:04:20;;;;;;;14.25;9.05;;;15.50;82.20;;;;;;6119803;23;20021;-74
2021/06/19 09:06:47;;;;;;;18.98;9.07;;;15.60;82.30;;;;;;6120765;23;20077;-77
2021/06/19 09:09:18;;;;;;;12.45;8.48;;;15.60;81.90;;;;;;6120746;23;20021;-73
2021/06/19 09:11:47;;;;;;;13.00;8.52;;;15.70;81.60;;;;;;6122021;23;20016;-73
2021/06/19 09:14:19;;;;;;;14.82;8.88;;;15.80;81.00;;;;;;6119971;23;20077;-76
2021/06/19 09:17:01;;;;;;;12.20;8.63;;;15.90;80.90;;;;;;6121863;23;20002;-75
2021/06/19 09:19:31;;;;;;;13.20;8.35;;;15.90;81.10;;;;;;6120663;23;20009;-69
2021/06/19 09:22:25;;;;;;;17.73;9.38;;;16.00;81.00;;;;;;6119680;23;20049;-75
2021/06/19 09:24:58;;;;;;;19.27;7.97;;;16.10;80.90;;;;;;6121452;23;20072;-75
2021/06/19 09:27:40;;;;;;;13.43;7.60;;;16.20;80.40;;;;;;6118354;23;20013;-72
2021/06/19 09:30:13;;;;;;;16.80;9.50;;;16.30;80.30;;;;;;6121680;23;20002;-71
2021/06/19 09:32:49;;;;;;;17.48;10.30;;;16.30;79.90;;;;;;6120438;23;20028;-74
2021/06/19 09:35:26;;;;;;;19.08;10.52;;;16.40;79.20;;;;;;6121577;23;20029;-73
2021/06/19 09:37:55;;;;;;;16.90;10.20;;;16.50;78.40;;;;;;6121634;23;20006;-72
2021/06/19 09:40:40;;;;;;;18.90;11.45;;;16.60;77.50;;;;;;6120390;23;20441;-72
2021/06/19 09:43:16;;;;;;;;;;;16.70;76.20;;;;;;6122346;23;20041;-71
2021/06/19 09:46:00;;;;;;;65.18;47.88;;;16.80;76.10;;;;;;6120474;23;19907;-73
2021/06/19 09:48:35;;;;;;;39.20;26.83;;;16.90;75.70;;;;;;6120589;23;20002;-73
2021/06/19 09:51:24;;;;;;;155.77;123.40;;;17.00;75.20;;;;;;6121688;23;20026;-75
2021/06/19 09:53:52;;;;;;;137.10;112.45;;;17.10;75.30;;;;;;6120541;23;20012;-74
2021/06/19 09:56:21;;;;;;;90.05;71.85;;;17.20;75.90;;;;;;6122222;23;20005;-75
2021/06/19 09:59:01;;;;;;;65.68;50.95;;;17.30;76.20;;;;;;6119216;23;20326;-75
2021/06/19 10:01:36;;;;;;;49.20;38.17;;;17.30;75.50;;;;;;6121624;23;20342;-74
2021/06/19 10:04:04;;;;;;;39.40;29.40;;;17.50;74.90;;;;;;6121671;23;20042;-74
2021/06/19 10:06:32;;;;;;;35.53;23.45;;;17.60;74.90;;;;;;6119364;23;20619;-74
2021/06/19 10:08:59;;;;;;;28.60;20.10;;;17.70;73.60;;;;;;6120295;23;20010;-74
2021/06/19 10:11:28;;;;;;;33.13;19.90;;;17.80;72.70;;;;;;6118990;23;20101;-74
2021/06/19 10:14:34;;;;;;;34.95;19.42;;;17.90;71.80;;;;;;6117234;23;20056;-74
2021/06/19 10:17:40;;;;;;;32.83;17.02;;;18.00;72.30;;;;;;6120996;23;20454;-76
2021/06/19 10:20:46;;;;;;;33.78;19.77;;;18.10;72.10;;;;;;6118923;23;20069;-72
2021/06/19 10:23:54;;;;;;;24.58;14.77;;;18.30;71.40;;;;;;6118807;23;20018;-72
2021/06/19 10:27:01;;;;;;;21.52;16.40;;;18.40;70.80;;;;;;6120023;23;20053;-75
2021/06/19 10:30:07;;;;;;;18.30;12.73;;;18.50;70.50;;;;;;6119939;23;20005;-72
2021/06/19 10:33:20;;;;;;;19.65;11.70;;;18.70;67.90;;;;;;6117798;23;20038;-75
2021/06/19 10:36:29;;;;;;;22.92;12.18;;;18.80;66.70;;;;;;6121229;23;20026;-74
2021/06/19 10:39:36;;;;;;;21.13;10.40;;;19.00;65.60;;;;;;6120678;23;20006;-74
2021/06/19 10:42:45;;;;;;;16.55;9.27;;;19.10;65.80;;;;;;6119190;23;20006;-74
2021/06/19 10:45:57;;;;;;;8.88;6.03;;;19.30;66.30;;;;;;6119397;23;20040;-73
2021/06/19 10:49:12;;;;;;;11.85;7.18;;;19.40;63.80;;;;;;6120816;23;20009;-72
2021/06/19 10:51:47;;;;;;;8.38;5.72;;;19.60;65.10;;;;;;6120828;23;20042;-74
2021/06/19 10:54:27;;;;;;;9.38;4.95;;;19.70;63.90;;;;;;6116863;23;20621;-73
2021/06/19 10:56:56;;;;;;;40.40;31.25;;;19.80;63.60;;;;;;6120535;23;20009;-72
2021/06/19 10:59:25;;;;;;;38.85;21.83;;;19.90;62.80;;;;;;6118676;23;20025;-72
2021/06/19 11:01:54;;;;;;;19.75;12.77;;;20.00;61.20;;;;;;6120803;23;20013;-72
2021/06/19 11:04:36;;;;;;;11.50;8.13;;;20.10;59.70;;;;;;6120087;23;20017;-70
2021/06/19 11:07:05;;;;;;;10.75;6.00;;;20.20;59.60;;;;;;6119219;23;20002;-70
2021/06/19 11:09:49;;;;;;;151.32;123.93;;;20.30;59.70;;;;;;6120348;23;20468;-70
2021/06/19 11:12:33;;;;;;;54.07;44.43;;;20.40;59.20;;;;;;6120145;23;20033;-71
2021/06/19 11:15:07;;;;;;;19.40;14.07;;;20.40;58.90;;;;;;6120713;23;20006;-70
2021/06/19 11:17:35;;;;;;;11.23;9.77;;;20.50;58.30;;;;;;6121030;23;20002;-70
2021/06/19 11:20:24;;;;;;;7.72;6.07;;;20.60;57.70;;;;;;6119816;23;20308;-74
2021/06/19 11:22:55;;;;;;;4.90;3.15;;;20.70;57.20;;;;;;6119870;23;20407;-74
2021/06/19 11:25:40;;;;;;;2.80;2.60;;;20.80;57.20;;;;;;6119254;23;20466;-72
2021/06/19 11:28:09;;;;;;;;;;;20.90;55.50;;;;;;6121077;23;20002;-73
2021/06/19 11:30:37;;;;;;;1.17;1.05;;;21.00;54.80;;;;;;6118917;23;20314;-72
2021/06/19 11:33:24;;;;;;;1.45;1.08;;;21.00;54.50;;;;;;6118775;23;20012;-68
2021/06/19 11:36:03;;;;;;;8.88;6.22;;;21.00;54.70;;;;;;6121871;23;20002;-71
2021/06/19 11:38:50;;;;;;;52.03;46.35;;;21.20;46.60;;;;;;6120309;23;20017;-72
2021/06/19 11:41:19;;;;;;;32.10;28.33;;;21.60;49.60;;;;;;6121433;23;20010;-71
2021/06/19 11:43:46;;;;;;;19.60;16.55;;;21.70;51.10;;;;;;6119814;23;20018;-72
2021/06/19 11:46:14;;;;;;;12.43;10.77;;;21.70;51.10;;;;;;6120649;23;20002;-71
2021/06/19 11:48:53;;;;;;;47.08;41.13;;;21.70;51.50;;;;;;6121935;23;20006;-71
2021/06/19 11:52:08;;;;;;;40.30;35.10;;;21.70;51.80;;;;;;6121473;23;20002;-71
2021/06/19 11:55:14;;;;;;;15.35;12.00;;;21.70;52.30;;;;;;6121461;23;20024;-74
2021/06/19 11:58:21;;;;;;;165.65;141.60;;;21.80;53.40;;;;;;6121735;23;20030;-71
2021/06/19 12:01:33;;;;;;;17.38;14.38;;;21.80;53.10;;;;;;6121798;23;20002;-72
2021/06/19 12:04:39;;;;;;;9.52;8.05;;;21.90;52.00;;;;;;6120777;23;20018;-72
2021/06/19 12:07:45;;;;;;;4.90;4.05;;;21.90;52.70;;;;;;6120798;23;20354;-72
2021/06/19 12:10:25;;;;;;;;;;;22.10;51.80;;;;;;6123627;23;20024;-71
2021/06/19 12:12:56;;;;;;;5.15;1.58;;;22.10;51.10;;;;;;6120471;23;19931;-71
2021/06/19 12:15:23;;;;;;;2.03;0.98;;;22.10;51.20;;;;;;6121486;23;20013;-71
2021/06/19 12:17:50;;;;;;;0.80;0.80;;;22.20;50.50;;;;;;6122242;23;20407;-70
2021/06/19 12:20:22;;;;;;;54.72;48.65;;;22.20;49.70;;;;;;6123231;23;20002;-70
2021/06/19 12:22:49;;;;;;;11.82;10.63;;;22.20;49.10;;;;;;6122833;23;20419;-71
2021/06/19 12:25:34;;;;;;;4.65;3.85;;;22.30;49.80;;;;;;6121979;23;20386;-71
2021/06/19 12:28:05;;;;;;;2.60;2.40;;;22.30;50.30;;;;;;6122428;23;20074;-71
2021/06/19 12:30:32;;;;;;;2.88;2.13;;;22.40;49.90;;;;;;6121010;23;20049;-70
2021/06/19 12:32:59;;;;;;;1.48;1.38;;;22.40;49.50;;;;;;6122322;23;20006;-71
2021/06/19 12:35:26;;;;;;;37.03;33.30;;;22.50;49.70;;;;;;6121126;23;20342;-70
2021/06/19 12:37:56;;;;;;;6.43;5.82;;;22.50;49.00;;;;;;6119447;23;20005;-70
2021/06/19 12:40:42;;;;;;;3.17;2.47;;;22.60;48.90;;;;;;6122624;23;20085;-71
2021/06/19 12:43:09;;;;;;;13.10;9.98;;;22.60;48.30;;;;;;6119761;23;20009;-70
2021/06/19 12:45:39;;;;;;;8.35;7.45;;;22.60;48.40;;;;;;6121999;23;20343;-71
2021/06/19 12:48:25;;;;;;;4.90;3.85;;;22.60;48.40;;;;;;6120089;23;20030;-71
2021/06/19 12:50:53;;;;;;;3.17;2.40;;;22.70;48.70;;;;;;6121931;23;20010;-71
2021/06/19 12:53:31;;;;;;;1.92;1.77;;;22.70;48.20;;;;;;6120690;23;20014;-70
2021/06/19 12:55:58;;;;;;;2.20;1.65;;;22.80;47.10;;;;;;6121415;23;20002;-70
2021/06/19 12:58:45;;;;;;;2.78;1.63;;;22.80;46.70;;;;;;6120912;23;20034;-68
2021/06/19 13:01:21;;;;;;;1.30;0.98;;;22.80;47.10;;;;;;6121668;23;19998;-69
2021/06/19 13:03:50;;;;;;;0.82;0.65;;;22.80;47.00;;;;;;6121891;23;20089;-72
2021/06/19 13:06:35;;;;;;;0.85;0.50;;;22.80;46.80;;;;;;6123138;23;20312;-71
2021/06/19 13:09:04;;;;;;;1.52;0.73;;;22.90;46.90;;;;;;6121314;23;20014;-71
2021/06/19 13:11:34;;;;;;;40.40;33.65;;;22.90;47.30;;;;;;6120690;23;20076;-72
2021/06/19 13:14:03;;;;;;;13.93;12.52;;;22.90;47.30;;;;;;6120924;23;20002;-74
2021/06/19 13:16:34;;;;;;;9.88;6.32;;;22.90;47.50;;;;;;6122328;23;20010;-70
2021/06/19 13:19:05;;;;;;;7.70;6.13;;;22.90;47.20;;;;;;6120115;23;20013;-72
2021/06/19 13:21:33;;;;;;;2.65;2.45;;;23.00;47.40;;;;;;6121501;23;20077;-70
2021/06/19 13:24:21;;;;;;;64.68;57.70;;;23.00;47.30;;;;;;6122100;23;20390;-72
2021/06/19 13:26:48;;;;;;;13.00;11.60;;;23.00;47.50;;;;;;6121448;23;19998;-71
2021/06/19 13:29:15;;;;;;;8.18;7.38;;;23.00;46.80;;;;;;6122545;23;20113;-72
2021/06/19 13:31:47;;;;;;;4.95;4.38;;;23.00;47.20;;;;;;6121583;23;20024;-74
2021/06/19 13:34:39;;;;;;;6.75;5.18;;;23.10;46.70;;;;;;6121943;23;20043;-74
2021/06/19 13:37:12;;;;;;;3.13;2.10;;;23.10;46.80;;;;;;6117669;23;20014;-76
2021/06/19 13:39:41;;;;;;;1.50;1.40;;;23.10;46.80;;;;;;6119829;23;20405;-76
2021/06/19 13:42:15;;;;;;;1.48;1.17;;;23.10;46.80;;;;;;6122945;23;20013;-72
2021/06/19 13:44:49;;;;;;;4.22;1.25;;;23.10;46.30;;;;;;6123058;23;20299;-74
2021/06/19 13:47:17;;;;;;;2.83;1.33;;;23.10;46.00;;;;;;6122840;23;20005;-75
2021/06/19 13:49:43;;;;;;;0.90;0.90;;;23.10;46.30;;;;;;6122543;23;20013;-74
2021/06/19 13:52:12;;;;;;;4.97;1.00;;;23.10;46.20;;;;;;6122709;23;20006;-75
2021/06/19 13:54:42;;;;;;;0.60;0.60;;;23.10;46.20;;;;;;6123935;23;20004;-73
2021/06/19 13:57:20;;;;;;;1.42;0.70;;;23.10;45.80;;;;;;6119761;23;20002;-74
2021/06/19 13:59:54;;;;;;;0.50;0.50;;;23.10;45.80;;;;;;6122029;23;20005;-73
2021/06/19 14:02:21;;;;;;;1.10;0.40;;;23.10;45.80;;;;;;6121712;23;20363;-74